createdAt,value
2019-03-15T00:01:44.684Z,8.50
2019-03-15T00:04:40.368Z,8.60
2019-03-15T00:07:36.541Z,8.50
2019-03-15T00:10:25.630Z,8.40
2019-03-15T00:13:08.289Z,8.50
2019-03-15T00:16:03.758Z,8.60
2019-03-15T00:18:59.406Z,8.80
2019-03-15T00:21:49.479Z,8.90
2019-03-15T00:24:32.500Z,9.10
2019-03-15T00:27:22.974Z,9.10
2019-03-15T00:29:59.852Z,9.00
2019-03-15T00:32:51.540Z,8.90
2019-03-15T00:35:28.158Z,8.90
2019-03-15T00:38:18.119Z,8.80
2019-03-15T00:40:54.226Z,8.70
2019-03-15T00:43:45.251Z,8.60
2019-03-15T00:46:21.617Z,8.50
2019-03-15T00:49:12.544Z,8.50
2019-03-15T00:51:56.270Z,8.60
2019-03-15T00:54:51.888Z,8.50
2019-03-15T00:57:41.219Z,8.10
2019-03-15T01:00:31.240Z,7.70
2019-03-15T01:03:20.851Z,7.60
2019-03-15T01:05:57.829Z,7.60
2019-03-15T01:08:47.687Z,7.70
2019-03-15T01:11:24.559Z,7.70
2019-03-15T01:14:20.992Z,7.80
2019-03-15T01:17:09.961Z,7.70
2019-03-15T01:19:46.388Z,7.50
2019-03-15T01:22:37.015Z,7.30
2019-03-15T01:25:16.327Z,7.30
2019-03-15T01:28:05.889Z,7.30
2019-03-15T01:30:42.732Z,7.30
2019-03-15T01:33:32.493Z,7.20
2019-03-15T01:36:15.429Z,7.20
2019-03-15T01:38:59.311Z,7.20
2019-03-15T01:41:41.639Z,7.20
2019-03-15T01:44:24.621Z,7.10
2019-03-15T01:47:19.725Z,7.00
2019-03-15T01:50:11.408Z,7.00
2019-03-15T01:52:48.188Z,7.30
2019-03-15T01:55:37.620Z,7.30
2019-03-15T01:58:13.732Z,7.30
2019-03-15T02:01:04.516Z,7.30
2019-03-15T02:03:42.324Z,7.10
2019-03-15T02:06:32.421Z,7.10
2019-03-15T02:09:14.677Z,7.20
2019-03-15T02:11:58.034Z,7.30
2019-03-15T02:14:54.475Z,7.50
2019-03-15T02:17:49.409Z,7.60
2019-03-15T02:20:39.585Z,7.50
2019-03-15T02:23:16.015Z,7.50
2019-03-15T02:26:05.194Z,7.60
2019-03-15T02:28:43.148Z,7.60
2019-03-15T02:31:32.708Z,7.50
2019-03-15T02:34:09.512Z,7.40
2019-03-15T02:36:59.926Z,7.40
2019-03-15T02:39:42.913Z,7.50
2019-03-15T02:42:26.417Z,7.30
2019-03-15T02:45:10.020Z,7.40
2019-03-15T02:47:53.209Z,7.30
2019-03-15T02:50:36.307Z,7.20
2019-03-15T02:53:20.081Z,7.30
2019-03-15T02:56:03.026Z,7.30
2019-03-15T02:58:46.648Z,7.10
2019-03-15T03:01:29.713Z,6.90
2019-03-15T03:04:14.547Z,6.90
2019-03-15T03:06:57.754Z,6.90
2019-03-15T03:09:48.228Z,6.60
2019-03-15T03:12:25.176Z,6.10
2019-03-15T03:15:22.454Z,5.80
2019-03-15T03:18:12.341Z,5.70
2019-03-15T03:20:50.313Z,5.50
2019-03-15T03:23:41.378Z,5.40
2019-03-15T03:26:19.128Z,5.30
2019-03-15T03:29:09.610Z,5.40
2019-03-15T03:31:52.711Z,5.30
2019-03-15T03:34:37.255Z,5.40
2019-03-15T03:37:20.582Z,5.50
2019-03-15T03:40:03.699Z,5.70
2019-03-15T03:42:52.753Z,5.90
2019-03-15T03:45:36.380Z,6.10
2019-03-15T03:48:19.127Z,6.00
2019-03-15T03:51:05.388Z,5.80
2019-03-15T03:53:49.461Z,5.70
2019-03-15T03:56:33.201Z,5.70
2019-03-15T03:59:22.657Z,5.80
2019-03-15T04:02:06.322Z,5.60
2019-03-15T04:04:49.897Z,5.50
2019-03-15T04:07:33.421Z,5.90
2019-03-15T04:10:17.580Z,6.10
2019-03-15T04:13:10.026Z,6.10
2019-03-15T04:15:47.160Z,5.90
2019-03-15T04:18:44.681Z,5.80
2019-03-15T04:21:39.843Z,6.00
2019-03-15T04:24:30.904Z,6.10
2019-03-15T04:27:07.700Z,5.90
2019-03-15T04:29:58.133Z,6.00
2019-03-15T04:32:34.502Z,6.00
2019-03-15T04:35:24.167Z,6.00
2019-03-15T04:38:07.234Z,6.10
2019-03-15T04:40:57.329Z,6.10
2019-03-15T04:43:40.840Z,6.10
2019-03-15T04:46:38.124Z,6.00
2019-03-15T04:49:28.171Z,5.90
2019-03-15T04:52:04.947Z,5.90
2019-03-15T04:54:56.254Z,6.00
2019-03-15T04:57:32.887Z,5.70
2019-03-15T05:00:23.590Z,5.70
2019-03-15T05:03:00.032Z,5.70
2019-03-15T05:06:02.463Z,5.80
2019-03-15T05:08:28.660Z,5.90
2019-03-15T05:11:19.071Z,5.80
2019-03-15T05:13:58.545Z,5.90
2019-03-15T05:16:47.340Z,6.00
2019-03-15T05:19:30.552Z,6.00
2019-03-15T05:22:26.420Z,5.70
2019-03-15T05:25:22.018Z,5.80
2019-03-15T05:28:11.284Z,6.00
2019-03-15T05:31:00.542Z,5.60
2019-03-15T05:33:43.560Z,5.80
2019-03-15T05:36:32.570Z,6.00
2019-03-15T05:39:22.197Z,6.00
2019-03-15T05:41:58.398Z,6.10
2019-03-15T05:44:49.124Z,6.10
2019-03-15T05:47:25.165Z,6.10
2019-03-15T05:50:18.131Z,6.00
2019-03-15T05:53:01.809Z,6.00
2019-03-15T05:55:50.977Z,6.10
2019-03-15T05:58:27.349Z,6.10
2019-03-15T06:01:18.371Z,6.10
2019-03-15T06:03:54.856Z,6.00
2019-03-15T06:06:43.835Z,6.10
2019-03-15T06:09:20.995Z,5.90
2019-03-15T06:12:10.574Z,6.10
2019-03-15T06:14:47.319Z,6.20
2019-03-15T06:17:36.917Z,6.20
2019-03-15T06:20:18.595Z,6.10
2019-03-15T06:23:08.635Z,6.10
2019-03-15T06:25:45.182Z,6.20
2019-03-15T06:28:35.391Z,6.00
2019-03-15T06:31:12.395Z,6.10
2019-03-15T06:34:01.973Z,6.30
2019-03-15T06:36:46.567Z,6.50
2019-03-15T06:39:38.815Z,6.70
2019-03-15T06:42:21.821Z,6.80
2019-03-15T06:45:16.965Z,6.60
2019-03-15T06:47:53.869Z,7.00
2019-03-15T06:50:44.208Z,7.30
2019-03-15T06:53:27.768Z,7.40
2019-03-15T06:56:17.504Z,7.50
2019-03-15T06:58:53.722Z,7.50
2019-03-15T07:01:43.931Z,7.50
2019-03-15T07:04:20.663Z,7.70
2019-03-15T07:07:11.080Z,7.80
2019-03-15T07:09:54.358Z,8.00
2019-03-15T07:12:50.021Z,8.30
2019-03-15T07:15:40.009Z,8.40
2019-03-15T07:18:18.925Z,8.20
2019-03-15T07:21:15.669Z,8.20
2019-03-15T07:24:24.083Z,8.20
2019-03-15T07:27:13.132Z,8.40
2019-03-15T07:30:05.371Z,8.70
2019-03-15T07:32:54.544Z,9.50
2019-03-15T07:35:39.216Z,9.20
2019-03-15T07:38:36.772Z,9.50
2019-03-15T07:41:26.551Z,9.90
2019-03-15T07:44:03.472Z,10.80
2019-03-15T07:46:54.083Z,11.30
2019-03-15T07:49:30.130Z,11.80
2019-03-15T07:52:20.486Z,12.40
2019-03-15T07:55:03.596Z,12.20
2019-03-15T07:57:52.912Z,12.50
2019-03-15T08:00:29.504Z,12.60
2019-03-15T08:03:20.190Z,12.00
2019-03-15T08:06:02.669Z,11.90
2019-03-15T08:08:46.101Z,12.10
2019-03-15T08:11:30.004Z,12.10
2019-03-15T08:14:12.711Z,11.80
2019-03-15T08:17:02.102Z,11.90
2019-03-15T08:19:44.801Z,11.90
2019-03-15T08:22:41.462Z,12.10
2019-03-15T08:25:37.953Z,12.10
2019-03-15T08:28:33.064Z,12.00
2019-03-15T08:31:23.406Z,11.80
2019-03-15T08:34:00.136Z,12.10
2019-03-15T08:36:50.665Z,12.10
2019-03-15T08:39:26.572Z,12.30
2019-03-15T08:42:16.796Z,12.30
2019-03-15T08:44:53.669Z,12.30
2019-03-15T08:47:43.527Z,12.50
2019-03-15T08:50:24.612Z,12.60
2019-03-15T08:53:14.333Z,12.90
2019-03-15T08:55:57.844Z,13.00
2019-03-15T08:58:46.897Z,13.00
2019-03-15T09:01:29.894Z,13.20
2019-03-15T09:04:21.602Z,12.90
2019-03-15T09:06:58.014Z,13.10
2019-03-15T09:09:47.515Z,13.40
2019-03-15T09:12:24.232Z,13.50
2019-03-15T09:15:15.903Z,13.90
2019-03-15T09:17:57.962Z,14.10
2019-03-15T09:20:42.049Z,14.00
2019-03-15T09:23:37.160Z,14.00
2019-03-15T09:26:32.087Z,14.20
2019-03-15T09:29:29.054Z,14.40
2019-03-15T09:32:24.463Z,14.50
2019-03-15T09:35:20.540Z,14.30
2019-03-15T09:38:17.281Z,14.90
2019-03-15T09:41:12.477Z,15.00
2019-03-15T09:44:08.093Z,15.00
2019-03-15T09:47:04.766Z,14.70
2019-03-15T09:49:54.018Z,14.60
2019-03-15T09:52:30.772Z,14.30
2019-03-15T09:55:32.347Z,14.50
2019-03-15T09:58:05.781Z,14.40
2019-03-15T10:01:01.296Z,14.50
2019-03-15T10:03:51.191Z,14.50
2019-03-15T10:06:33.886Z,14.40
2019-03-15T10:09:30.467Z,14.40
2019-03-15T10:12:19.800Z,14.40
2019-03-15T10:15:02.899Z,14.40
2019-03-15T10:17:51.151Z,14.30
2019-03-15T10:20:34.267Z,14.30
2019-03-15T10:23:23.250Z,14.10
2019-03-15T10:26:14.973Z,14.20
2019-03-15T10:28:51.312Z,14.20
2019-03-15T10:31:41.320Z,14.10
2019-03-15T10:34:17.896Z,13.90
2019-03-15T10:37:08.359Z,14.10
2019-03-15T10:39:44.938Z,14.00
2019-03-15T10:42:35.357Z,14.10
2019-03-15T10:45:16.210Z,13.80
2019-03-15T10:48:08.217Z,13.80
2019-03-15T10:50:45.128Z,13.90
2019-03-15T10:53:35.619Z,13.80
2019-03-15T10:56:12.510Z,13.90
2019-03-15T10:59:03.223Z,14.00
2019-03-15T11:01:40.162Z,14.30
2019-03-15T11:04:30.407Z,14.40
2019-03-15T11:07:13.637Z,14.10
2019-03-15T11:10:09.985Z,14.10
2019-03-15T11:13:05.379Z,14.10
2019-03-15T11:16:00.939Z,14.30
2019-03-15T11:18:50.779Z,14.50
2019-03-15T11:21:26.719Z,14.60
2019-03-15T11:24:23.524Z,14.70
2019-03-15T11:27:21.199Z,14.50
2019-03-15T11:30:13.886Z,14.50
2019-03-15T11:32:50.782Z,14.50
2019-03-15T11:35:42.787Z,14.60
2019-03-15T11:38:26.091Z,14.80
2019-03-15T11:41:09.174Z,15.00
2019-03-15T11:43:53.237Z,15.00
2019-03-15T11:46:36.645Z,15.10
2019-03-15T11:49:28.239Z,15.10
2019-03-15T11:52:08.487Z,15.30
2019-03-15T11:54:59.019Z,15.30
2019-03-15T11:57:41.830Z,15.10
2019-03-15T12:00:28.145Z,15.20
2019-03-15T12:03:11.027Z,15.20
2019-03-15T12:05:53.394Z,15.00
2019-03-15T12:08:36.981Z,15.10
2019-03-15T12:11:20.726Z,15.20
2019-03-15T12:14:09.954Z,15.10
2019-03-15T12:16:59.276Z,15.20
2019-03-15T12:19:36.250Z,15.10
2019-03-15T12:22:26.593Z,15.00
2019-03-15T12:25:11.027Z,15.10
2019-03-15T12:27:54.982Z,15.30
2019-03-15T12:30:37.848Z,15.50
2019-03-15T12:33:20.326Z,15.60
2019-03-15T12:36:05.760Z,15.60
2019-03-15T12:38:51.947Z,15.50
2019-03-15T12:41:36.622Z,15.50
2019-03-15T12:44:19.705Z,15.70
2019-03-15T12:47:06.056Z,15.70
2019-03-15T12:49:50.204Z,15.80
2019-03-15T12:52:46.587Z,15.90
2019-03-15T12:55:33.985Z,16.00
2019-03-15T12:58:17.539Z,15.90
2019-03-15T13:01:08.928Z,15.70
2019-03-15T13:03:52.919Z,15.80
2019-03-15T13:06:43.174Z,15.80
2019-03-15T13:09:27.493Z,16.00
2019-03-15T13:12:22.604Z,16.00
2019-03-15T13:14:59.048Z,16.10
2019-03-15T13:17:49.450Z,16.20
2019-03-15T13:20:35.228Z,16.20
2019-03-15T13:23:25.158Z,16.20
2019-03-15T13:26:20.215Z,16.20
2019-03-15T13:29:09.455Z,16.30
2019-03-15T13:31:52.135Z,16.50
2019-03-15T13:34:42.249Z,16.50
2019-03-15T13:37:26.309Z,16.40
2019-03-15T13:40:24.734Z,16.40
2019-03-15T13:43:02.077Z,16.60
2019-03-15T13:45:55.157Z,16.60
2019-03-15T13:48:31.564Z,16.60
2019-03-15T13:51:22.853Z,16.50
2019-03-15T13:54:06.610Z,16.50
2019-03-15T13:56:57.122Z,16.50
2019-03-15T13:59:41.351Z,16.60
2019-03-15T14:02:25.484Z,16.70
2019-03-15T14:05:16.077Z,16.80
2019-03-15T14:08:11.656Z,16.70
2019-03-15T14:10:55.435Z,16.80
2019-03-15T14:13:31.963Z,16.70
2019-03-15T14:16:21.131Z,16.90
2019-03-15T14:18:57.634Z,17.00
2019-03-15T14:21:48.792Z,17.00
2019-03-15T14:24:25.071Z,17.00
2019-03-15T14:27:15.893Z,16.90
2019-03-15T14:30:05.357Z,16.90
2019-03-15T14:32:47.675Z,16.90
2019-03-15T14:35:31.289Z,17.00
2019-03-15T14:38:14.411Z,17.10
2019-03-15T14:40:57.512Z,17.20
2019-03-15T14:43:46.847Z,17.30
2019-03-15T14:46:30.818Z,17.30
2019-03-15T14:49:13.135Z,17.10
2019-03-15T14:51:59.169Z,17.10
2019-03-15T14:54:47.413Z,17.20
2019-03-15T14:57:30.381Z,17.60
2019-03-15T15:00:19.860Z,17.70
2019-03-15T15:03:09.844Z,17.60
2019-03-15T15:05:52.953Z,17.80
2019-03-15T15:08:50.144Z,17.60
2019-03-15T15:11:39.479Z,17.80
2019-03-15T15:14:23.125Z,17.80
2019-03-15T15:17:18.425Z,17.70
2019-03-15T15:20:13.881Z,17.70
2019-03-15T15:23:08.830Z,17.70
2019-03-15T15:25:59.555Z,17.70
2019-03-15T15:28:37.929Z,17.60
2019-03-15T15:31:27.679Z,17.70
2019-03-15T15:34:04.645Z,17.80
2019-03-15T15:36:55.259Z,17.70
2019-03-15T15:39:38.902Z,17.60
2019-03-15T15:42:29.184Z,17.50
2019-03-15T15:45:13.658Z,17.50
2019-03-15T15:48:09.304Z,17.50
2019-03-15T15:50:59.038Z,17.40
2019-03-15T15:53:42.334Z,17.40
2019-03-15T15:56:25.590Z,17.40
2019-03-15T15:59:15.241Z,17.40
2019-03-15T16:02:10.448Z,17.40
2019-03-15T16:04:54.486Z,17.40
2019-03-15T16:07:44.937Z,17.30
2019-03-15T16:10:21.668Z,17.30
2019-03-15T16:13:17.303Z,17.30
2019-03-15T16:15:56.987Z,17.30
2019-03-15T16:18:41.237Z,17.20
2019-03-15T16:21:25.158Z,17.20
2019-03-15T16:24:11.139Z,17.20
2019-03-15T16:26:56.033Z,17.10
2019-03-15T16:29:45.806Z,17.20
2019-03-15T16:32:29.082Z,17.00
2019-03-15T16:35:16.299Z,17.00
2019-03-15T16:37:59.779Z,17.00
2019-03-15T16:40:43.031Z,16.90
2019-03-15T16:43:26.410Z,16.90
2019-03-15T16:46:09.219Z,16.80
2019-03-15T16:48:53.942Z,16.80
2019-03-15T16:51:30.938Z,16.80
2019-03-15T16:54:27.462Z,16.70
2019-03-15T16:57:23.800Z,16.70
2019-03-15T17:00:19.333Z,16.60
2019-03-15T17:02:55.576Z,16.60
2019-03-15T17:05:46.403Z,16.70
2019-03-15T17:08:22.877Z,16.70
2019-03-15T17:11:13.814Z,16.60
2019-03-15T17:13:58.447Z,16.60
2019-03-15T17:16:48.785Z,16.60
2019-03-15T17:19:31.786Z,16.60
2019-03-15T17:22:27.380Z,16.50
2019-03-15T17:25:25.232Z,16.50
2019-03-15T17:28:15.456Z,16.30
2019-03-15T17:31:08.779Z,16.10
2019-03-15T17:33:46.583Z,16.10
2019-03-15T17:36:23.504Z,16.00
2019-03-15T17:39:14.777Z,15.90
2019-03-15T17:41:52.182Z,15.80
2019-03-15T17:44:41.588Z,15.80
2019-03-15T17:47:24.985Z,15.70
2019-03-15T17:50:20.337Z,15.70
2019-03-15T17:52:57.932Z,15.50
2019-03-15T17:55:47.507Z,15.50
2019-03-15T17:58:30.906Z,15.50
2019-03-15T18:01:27.959Z,15.40
2019-03-15T18:04:23.246Z,15.40
2019-03-15T18:07:15.711Z,15.40
2019-03-15T18:10:00.058Z,15.30
2019-03-15T18:12:55.891Z,15.20
2019-03-15T18:15:53.789Z,15.00
2019-03-15T18:18:49.617Z,14.90
2019-03-15T18:21:45.476Z,14.80
2019-03-15T18:24:36.779Z,14.70
2019-03-15T18:27:13.458Z,14.50
2019-03-15T18:30:10.147Z,14.40
2019-03-15T18:33:07.556Z,14.40
2019-03-15T18:36:02.775Z,14.30
2019-03-15T18:38:58.118Z,14.40
2019-03-15T18:41:53.600Z,14.30
2019-03-15T18:44:49.455Z,14.10
2019-03-15T18:47:44.828Z,14.10
2019-03-15T18:50:37.049Z,14.10
2019-03-15T18:53:27.550Z,14.00
2019-03-15T18:56:24.696Z,13.90
2019-03-15T18:59:14.026Z,13.90
2019-03-15T19:01:50.815Z,13.80
2019-03-15T19:04:41.155Z,13.90
2019-03-15T19:07:17.086Z,13.90
2019-03-15T19:10:06.422Z,13.80
2019-03-15T19:12:42.425Z,13.70
2019-03-15T19:15:32.836Z,13.70
2019-03-15T19:18:09.803Z,13.70
2019-03-15T19:21:01.299Z,13.70
2019-03-15T19:23:37.360Z,13.60
2019-03-15T19:26:28.961Z,13.60
2019-03-15T19:29:06.430Z,13.50
2019-03-15T19:31:57.098Z,13.50
2019-03-15T19:34:33.385Z,13.40
2019-03-15T19:37:23.426Z,13.50
2019-03-15T19:40:05.878Z,13.40
2019-03-15T19:42:49.440Z,13.30
2019-03-15T19:45:32.216Z,13.30
2019-03-15T19:48:17.250Z,13.30
2019-03-15T19:51:00.322Z,13.40
2019-03-15T19:53:44.858Z,13.30
2019-03-15T19:56:34.291Z,13.30
2019-03-15T19:59:17.969Z,13.40
2019-03-15T20:02:00.848Z,13.40
2019-03-15T20:04:43.863Z,13.20
2019-03-15T20:07:26.273Z,13.10
2019-03-15T20:10:10.944Z,13.00
2019-03-15T20:13:02.681Z,13.10
2019-03-15T20:15:43.065Z,13.00
2019-03-15T20:18:33.715Z,13.10
2019-03-15T20:21:12.284Z,13.00
2019-03-15T20:24:02.365Z,12.90
2019-03-15T20:26:39.556Z,12.90
2019-03-15T20:29:29.271Z,12.80
2019-03-15T20:32:19.322Z,12.80
2019-03-15T20:35:09.830Z,12.80
2019-03-15T20:37:46.988Z,12.80
2019-03-15T20:40:36.830Z,12.70
2019-03-15T20:43:20.347Z,12.80
2019-03-15T20:46:16.474Z,12.70
2019-03-15T20:49:13.236Z,12.70
2019-03-15T20:52:07.257Z,12.60
2019-03-15T20:54:45.023Z,12.70
2019-03-15T20:57:35.542Z,12.60
2019-03-15T21:00:15.997Z,12.60
2019-03-15T21:03:06.091Z,12.60
2019-03-15T21:05:43.768Z,12.50
2019-03-15T21:08:33.628Z,12.50
2019-03-15T21:11:11.316Z,12.50
2019-03-15T21:14:00.940Z,12.50
2019-03-15T21:16:37.917Z,12.50
2019-03-15T21:19:27.928Z,12.60
2019-03-15T21:22:04.640Z,12.50
2019-03-15T21:24:53.955Z,12.50
2019-03-15T21:27:37.760Z,12.40
2019-03-15T21:30:33.341Z,12.30
2019-03-15T21:33:16.536Z,12.40
2019-03-15T21:36:01.876Z,12.20
2019-03-15T21:38:48.425Z,12.20
2019-03-15T21:41:30.709Z,12.20
2019-03-15T21:44:13.610Z,12.30
2019-03-15T21:47:00.386Z,12.30
2019-03-15T21:49:44.434Z,12.30
2019-03-15T21:52:32.222Z,12.30
2019-03-15T21:55:16.269Z,12.20
2019-03-15T21:58:13.008Z,12.00
2019-03-15T22:01:03.555Z,12.10
2019-03-15T22:03:40.426Z,12.00
2019-03-15T22:06:30.581Z,11.80
2019-03-15T22:09:08.103Z,11.70
2019-03-15T22:11:57.762Z,11.90
2019-03-15T22:14:34.920Z,11.90
2019-03-15T22:17:25.372Z,12.00
2019-03-15T22:20:02.554Z,12.00
2019-03-15T22:22:53.362Z,11.90
2019-03-15T22:25:30.190Z,11.90
2019-03-15T22:28:20.233Z,11.80
2019-03-15T22:30:56.193Z,11.70
2019-03-15T22:33:46.779Z,11.70
2019-03-15T22:36:29.934Z,11.60
2019-03-15T22:39:13.629Z,11.60
2019-03-15T22:41:57.117Z,11.60
2019-03-15T22:44:40.331Z,11.50
2019-03-15T22:47:24.329Z,11.50
2019-03-15T22:50:07.427Z,11.40
2019-03-15T22:52:51.503Z,11.20
2019-03-15T22:55:35.674Z,11.10
2019-03-15T22:58:19.711Z,11.10
2019-03-15T23:01:03.451Z,11.00
2019-03-15T23:03:52.876Z,10.90
2019-03-15T23:06:37.311Z,10.80
2019-03-15T23:09:21.410Z,10.50
2019-03-15T23:12:04.851Z,10.50
2019-03-15T23:14:47.177Z,10.30
2019-03-15T23:17:37.492Z,10.30
2019-03-15T23:20:23.543Z,10.30
2019-03-15T23:23:23.719Z,10.30
2019-03-15T23:26:11.660Z,10.30
2019-03-15T23:28:48.595Z,10.30
2019-03-15T23:31:43.879Z,10.30
2019-03-15T23:34:18.214Z,10.30
2019-03-15T23:37:07.938Z,10.10
2019-03-15T23:39:51.269Z,10.10
2019-03-15T23:42:46.365Z,10.20
2019-03-15T23:45:42.406Z,10.30
2019-03-15T23:48:31.915Z,10.30
2019-03-15T23:51:08.166Z,10.40
2019-03-15T23:53:58.626Z,10.40
2019-03-15T23:56:34.789Z,10.30
2019-03-15T23:59:25.150Z,9.90
